createdAt,value
2019-03-10T00:01:59.573Z,10.30
2019-03-10T00:04:30.510Z,10.20
2019-03-10T00:07:01.523Z,10.30
2019-03-10T00:09:32.462Z,10.30
2019-03-10T00:12:05.189Z,10.20
2019-03-10T00:14:36.122Z,10.20
2019-03-10T00:17:07.161Z,10.20
2019-03-10T00:19:38.102Z,10.10
2019-03-10T00:22:09.072Z,10.10
2019-03-10T00:24:40.001Z,10.00
2019-03-10T00:27:10.977Z,10.00
2019-03-10T00:29:41.948Z,10.10
2019-03-10T00:32:12.943Z,10.10
2019-03-10T00:34:43.993Z,10.00
2019-03-10T00:37:14.980Z,10.00
2019-03-10T00:40:12.706Z,10.00
2019-03-10T00:43:22.865Z,10.00
2019-03-10T00:46:45.682Z,10.00
2019-03-10T00:49:56.458Z,9.90
2019-03-10T00:52:40.407Z,9.80
2019-03-10T00:55:11.364Z,9.90
2019-03-10T00:57:42.910Z,9.90
2019-03-10T01:00:19.243Z,9.90
2019-03-10T01:02:50.274Z,9.90
2019-03-10T01:05:21.247Z,9.90
2019-03-10T01:07:52.174Z,9.90
2019-03-10T01:10:23.136Z,9.80
2019-03-10T01:12:54.265Z,9.80
2019-03-10T01:15:25.230Z,9.70
2019-03-10T01:17:56.763Z,9.70
2019-03-10T01:20:28.128Z,9.70
2019-03-10T01:22:59.096Z,9.70
2019-03-10T01:25:30.049Z,9.70
2019-03-10T01:28:01.004Z,9.70
2019-03-10T01:30:39.150Z,9.70
2019-03-10T01:33:26.298Z,9.70
2019-03-10T01:35:57.283Z,9.80
2019-03-10T01:38:28.323Z,9.80
2019-03-10T01:40:59.262Z,9.80
2019-03-10T01:43:30.229Z,9.80
2019-03-10T01:46:01.161Z,9.80
2019-03-10T01:48:32.125Z,9.70
2019-03-10T01:51:03.132Z,9.70
2019-03-10T01:53:34.118Z,9.70
2019-03-10T01:56:05.056Z,9.70
2019-03-10T01:58:36.045Z,9.70
2019-03-10T02:01:06.974Z,9.70
2019-03-10T02:03:37.941Z,9.70
2019-03-10T02:06:08.872Z,9.60
2019-03-10T02:08:39.828Z,9.70
2019-03-10T02:11:10.794Z,9.60
2019-03-10T02:13:41.730Z,9.60
2019-03-10T02:16:12.701Z,9.60
2019-03-10T02:18:43.641Z,9.60
2019-03-10T02:21:14.670Z,9.60
2019-03-10T02:23:45.597Z,9.50
2019-03-10T02:26:16.617Z,9.50
2019-03-10T02:28:47.551Z,9.40
2019-03-10T02:31:18.512Z,9.40
2019-03-10T02:33:49.469Z,9.40
2019-03-10T02:36:20.495Z,9.40
2019-03-10T02:38:51.436Z,9.40
2019-03-10T02:41:22.479Z,9.40
2019-03-10T02:43:53.443Z,9.30
2019-03-10T02:46:24.457Z,9.30
2019-03-10T02:48:55.391Z,9.30
2019-03-10T02:51:26.503Z,9.30
2019-03-10T02:53:57.462Z,9.30
2019-03-10T02:56:28.395Z,9.40
2019-03-10T02:58:59.375Z,9.40
2019-03-10T03:01:30.294Z,9.50
2019-03-10T03:04:01.256Z,9.50
2019-03-10T03:06:32.194Z,9.50
2019-03-10T03:09:03.168Z,9.50
2019-03-10T03:11:35.715Z,9.60
2019-03-10T03:14:06.789Z,9.70
2019-03-10T03:16:37.772Z,9.70
2019-03-10T03:19:08.735Z,9.70
2019-03-10T03:21:43.527Z,9.80
2019-03-10T03:24:12.336Z,9.80
2019-03-10T03:26:43.313Z,9.90
2019-03-10T03:29:14.425Z,10.00
2019-03-10T03:31:45.367Z,10.20
2019-03-10T03:34:16.365Z,10.20
2019-03-10T03:36:47.419Z,10.20
2019-03-10T03:39:28.527Z,10.20
2019-03-10T03:41:59.513Z,10.10
2019-03-10T03:44:30.561Z,9.90
2019-03-10T03:47:01.536Z,9.60
2019-03-10T03:49:32.464Z,9.10
2019-03-10T03:52:03.541Z,8.60
2019-03-10T03:54:34.468Z,8.20
2019-03-10T03:57:05.429Z,7.90
2019-03-10T03:59:36.357Z,7.60
2019-03-10T04:02:08.899Z,7.40
2019-03-10T04:04:39.830Z,7.30
2019-03-10T04:07:10.809Z,7.20
2019-03-10T04:09:41.805Z,7.10
2019-03-10T04:12:12.806Z,7.10
2019-03-10T04:14:43.769Z,7.10
2019-03-10T04:17:14.800Z,7.10
2019-03-10T04:19:45.809Z,7.10
2019-03-10T04:22:16.773Z,7.10
2019-03-10T04:24:47.712Z,7.10
2019-03-10T04:27:18.753Z,7.10
2019-03-10T04:29:49.713Z,7.00
2019-03-10T04:32:20.674Z,7.00
2019-03-10T04:34:51.669Z,6.90
2019-03-10T04:37:22.712Z,6.90
2019-03-10T04:39:53.676Z,6.90
2019-03-10T04:42:25.607Z,6.90
2019-03-10T04:44:56.580Z,6.90
2019-03-10T04:47:27.511Z,6.90
2019-03-10T04:49:58.480Z,6.90
2019-03-10T04:52:29.413Z,6.90
2019-03-10T04:55:00.074Z,6.80
2019-03-10T04:57:31.086Z,6.90
2019-03-10T05:00:02.061Z,7.00
2019-03-10T05:02:33.936Z,6.90
2019-03-10T05:05:07.813Z,6.80
2019-03-10T05:07:38.751Z,6.70
2019-03-10T05:10:09.723Z,6.80
2019-03-10T05:12:40.661Z,6.70
2019-03-10T05:15:11.625Z,6.70
2019-03-10T05:17:42.566Z,6.80
2019-03-10T05:20:13.523Z,7.00
2019-03-10T05:22:44.496Z,6.90
2019-03-10T05:25:19.301Z,7.00
2019-03-10T05:27:50.273Z,7.00
2019-03-10T05:30:21.274Z,6.90
2019-03-10T05:32:52.346Z,6.90
2019-03-10T05:35:23.303Z,6.90
2019-03-10T05:37:54.264Z,6.90
2019-03-10T05:40:25.209Z,6.90
2019-03-10T05:42:56.177Z,6.80
2019-03-10T05:45:27.118Z,6.80
2019-03-10T05:47:58.092Z,6.80
2019-03-10T05:50:29.110Z,6.80
2019-03-10T05:53:00.851Z,7.00
2019-03-10T05:55:31.971Z,7.20
2019-03-10T05:58:02.952Z,7.10
2019-03-10T06:00:42.038Z,7.10
2019-03-10T06:03:06.545Z,7.00
2019-03-10T06:05:37.487Z,6.90
2019-03-10T06:08:08.453Z,7.10
2019-03-10T06:10:39.430Z,7.00
2019-03-10T06:13:10.503Z,7.00
2019-03-10T06:15:41.476Z,7.00
2019-03-10T06:18:13.941Z,7.00
2019-03-10T06:20:45.299Z,7.00
2019-03-10T06:23:16.276Z,7.00
2019-03-10T06:25:47.256Z,7.10
2019-03-10T06:28:18.187Z,7.10
2019-03-10T06:30:49.161Z,7.10
2019-03-10T06:33:20.096Z,7.10
2019-03-10T06:35:51.062Z,7.00
2019-03-10T06:38:21.994Z,6.90
2019-03-10T06:40:52.966Z,7.00
2019-03-10T06:43:23.914Z,7.00
2019-03-10T06:45:54.876Z,7.00
2019-03-10T06:48:25.809Z,7.00
2019-03-10T06:50:56.780Z,7.00
2019-03-10T06:53:27.721Z,7.00
2019-03-10T06:55:58.705Z,7.00
2019-03-10T06:58:30.644Z,7.00
2019-03-10T07:01:01.626Z,7.00
2019-03-10T07:03:32.597Z,7.00
2019-03-10T07:06:03.536Z,7.10
2019-03-10T07:08:34.503Z,7.10
2019-03-10T07:11:05.438Z,7.10
2019-03-10T07:13:36.415Z,7.20
2019-03-10T07:16:07.356Z,7.10
2019-03-10T07:18:38.522Z,7.10
2019-03-10T07:21:09.464Z,7.10
2019-03-10T07:23:40.434Z,7.30
2019-03-10T07:26:11.379Z,7.40
2019-03-10T07:28:49.900Z,7.50
2019-03-10T07:31:31.480Z,7.50
2019-03-10T07:34:12.509Z,7.50
2019-03-10T07:36:52.311Z,7.50
2019-03-10T07:39:41.174Z,7.50
2019-03-10T07:42:22.864Z,7.60
2019-03-10T07:45:01.216Z,7.60
2019-03-10T07:47:35.033Z,7.60
2019-03-10T07:50:24.758Z,7.70
2019-03-10T07:53:12.602Z,7.70
2019-03-10T07:56:01.299Z,7.90
2019-03-10T07:58:49.865Z,8.10
2019-03-10T08:01:20.528Z,8.20
2019-03-10T08:03:53.051Z,8.40
2019-03-10T08:06:37.646Z,8.60
2019-03-10T08:09:29.014Z,8.80
2019-03-10T08:12:04.279Z,9.10
2019-03-10T08:14:36.787Z,9.50
2019-03-10T08:17:12.143Z,9.70
2019-03-10T08:20:01.151Z,9.80
2019-03-10T08:22:33.763Z,10.10
2019-03-10T08:25:13.113Z,10.30
2019-03-10T08:28:02.202Z,10.40
2019-03-10T08:30:33.011Z,10.60
2019-03-10T08:33:05.573Z,10.70
2019-03-10T08:35:56.601Z,10.80
2019-03-10T08:38:36.067Z,10.90
2019-03-10T08:41:08.607Z,11.00
2019-03-10T08:43:41.126Z,11.10
2019-03-10T08:46:19.643Z,11.20
2019-03-10T08:48:58.656Z,11.30
2019-03-10T08:51:47.036Z,11.40
2019-03-10T08:54:25.288Z,11.50
2019-03-10T08:57:10.174Z,11.60
2019-03-10T08:59:45.373Z,11.60
2019-03-10T09:02:20.646Z,11.50
2019-03-10T09:04:56.128Z,11.40
2019-03-10T09:07:44.444Z,11.30
2019-03-10T09:10:20.058Z,11.20
2019-03-10T09:12:55.492Z,11.10
2019-03-10T09:15:37.250Z,11.10
2019-03-10T09:18:10.592Z,11.10
2019-03-10T09:20:59.573Z,11.00
2019-03-10T09:23:32.304Z,11.10
2019-03-10T09:26:13.792Z,10.90
2019-03-10T09:28:50.579Z,10.80
2019-03-10T09:31:23.089Z,10.80
2019-03-10T09:33:58.311Z,10.70
2019-03-10T09:36:30.824Z,10.70
2019-03-10T09:39:15.377Z,10.60
2019-03-10T09:41:50.833Z,10.60
2019-03-10T09:44:23.371Z,10.60
2019-03-10T09:46:55.882Z,10.60
2019-03-10T09:49:44.781Z,10.50
2019-03-10T09:52:23.005Z,10.50
2019-03-10T09:54:53.678Z,10.50
2019-03-10T09:57:44.691Z,10.40
2019-03-10T10:00:33.827Z,10.30
2019-03-10T10:03:04.458Z,10.30
2019-03-10T10:05:52.235Z,10.20
2019-03-10T10:08:45.121Z,10.10
2019-03-10T10:11:17.128Z,10.10
2019-03-10T10:13:47.771Z,10.00
2019-03-10T10:16:36.339Z,9.90
2019-03-10T10:19:11.598Z,10.00
2019-03-10T10:21:52.929Z,9.90
2019-03-10T10:24:28.207Z,9.90
2019-03-10T10:27:00.880Z,9.90
2019-03-10T10:29:40.681Z,9.90
2019-03-10T10:32:13.237Z,9.90
2019-03-10T10:34:44.942Z,9.90
2019-03-10T10:37:23.639Z,9.90
2019-03-10T10:39:57.025Z,9.80
2019-03-10T10:42:45.713Z,9.70
2019-03-10T10:45:34.486Z,9.70
2019-03-10T10:48:09.979Z,9.70
2019-03-10T10:50:48.487Z,9.70
2019-03-10T10:53:27.005Z,9.60
2019-03-10T10:55:59.580Z,9.60
2019-03-10T10:58:47.165Z,9.60
2019-03-10T11:01:28.546Z,9.60
2019-03-10T11:04:07.276Z,9.60
2019-03-10T11:06:42.533Z,9.60
2019-03-10T11:09:15.074Z,9.70
2019-03-10T11:12:03.657Z,9.70
2019-03-10T11:14:45.006Z,9.70
2019-03-10T11:17:20.223Z,9.70
2019-03-10T11:19:52.818Z,9.80
2019-03-10T11:22:25.362Z,9.80
2019-03-10T11:25:03.981Z,9.90
2019-03-10T11:27:52.782Z,9.90
2019-03-10T11:30:41.999Z,9.80
2019-03-10T11:33:14.847Z,9.80
2019-03-10T11:35:59.895Z,9.90
2019-03-10T11:38:44.663Z,10.00
2019-03-10T11:41:17.367Z,10.10
2019-03-10T11:44:06.321Z,10.20
2019-03-10T11:46:37.025Z,10.20
2019-03-10T11:49:07.765Z,10.20
2019-03-10T11:51:44.596Z,10.20
2019-03-10T11:54:15.276Z,10.30
2019-03-10T11:57:03.891Z,10.40
2019-03-10T11:59:39.399Z,10.50
2019-03-10T12:02:20.780Z,10.70
2019-03-10T12:05:03.659Z,10.80
2019-03-10T12:07:39.350Z,11.10
2019-03-10T12:10:11.784Z,11.40
2019-03-10T12:12:42.760Z,11.40
2019-03-10T12:15:15.232Z,11.30
2019-03-10T12:17:46.209Z,11.00
2019-03-10T12:20:17.168Z,11.00
2019-03-10T12:22:48.139Z,11.10
2019-03-10T12:25:19.291Z,11.30
2019-03-10T12:27:50.274Z,11.50
2019-03-10T12:30:21.452Z,11.70
2019-03-10T12:32:52.494Z,12.00
2019-03-10T12:35:33.640Z,12.20
2019-03-10T12:37:56.138Z,12.40
2019-03-10T12:40:27.571Z,12.60
2019-03-10T12:42:58.716Z,12.80
2019-03-10T12:45:29.779Z,13.10
2019-03-10T12:48:00.828Z,13.40
2019-03-10T12:50:31.785Z,13.50
2019-03-10T12:53:02.750Z,13.40
2019-03-10T12:55:33.697Z,13.20
2019-03-10T12:58:04.794Z,13.40
2019-03-10T13:00:35.743Z,13.40
2019-03-10T13:03:06.699Z,13.40
2019-03-10T13:05:37.648Z,13.30
2019-03-10T13:08:08.622Z,14.30
2019-03-10T13:10:39.566Z,14.00
2019-03-10T13:13:10.534Z,13.60
2019-03-10T13:15:41.507Z,13.20
2019-03-10T13:18:12.462Z,13.10
2019-03-10T13:20:43.443Z,13.40
2019-03-10T13:23:14.383Z,13.90
2019-03-10T13:25:46.465Z,14.00
2019-03-10T13:28:17.403Z,14.10
2019-03-10T13:30:48.446Z,14.30
2019-03-10T13:33:19.385Z,14.30
2019-03-10T13:35:50.359Z,14.10
2019-03-10T13:38:21.329Z,13.90
2019-03-10T13:40:52.311Z,14.00
2019-03-10T13:43:23.256Z,14.20
2019-03-10T13:45:54.229Z,14.00
2019-03-10T13:48:25.175Z,13.80
2019-03-10T13:50:56.171Z,13.60
2019-03-10T13:53:27.115Z,13.70
2019-03-10T13:55:58.099Z,13.70
2019-03-10T13:58:29.028Z,13.80
2019-03-10T14:01:00.002Z,14.00
2019-03-10T14:03:30.971Z,14.10
2019-03-10T14:06:02.946Z,14.70
2019-03-10T14:08:35.017Z,15.50
2019-03-10T14:11:06.109Z,15.50
2019-03-10T14:13:37.085Z,15.30
2019-03-10T14:16:08.023Z,15.20
2019-03-10T14:18:38.996Z,15.00
2019-03-10T14:21:11.491Z,14.30
2019-03-10T14:23:42.459Z,13.90
2019-03-10T14:26:13.403Z,14.60
2019-03-10T14:28:44.382Z,15.10
2019-03-10T14:31:15.322Z,15.40
2019-03-10T14:33:46.314Z,15.30
2019-03-10T14:36:17.311Z,15.40
2019-03-10T14:38:48.286Z,14.50
2019-03-10T14:41:19.234Z,14.30
2019-03-10T14:43:50.244Z,15.10
2019-03-10T14:46:21.280Z,15.70
2019-03-10T14:48:53.253Z,15.30
2019-03-10T14:51:24.192Z,15.00
2019-03-10T14:53:55.170Z,14.80
2019-03-10T14:56:26.215Z,15.00
2019-03-10T14:58:57.214Z,15.10
2019-03-10T15:01:28.193Z,14.70
2019-03-10T15:03:59.158Z,14.80
2019-03-10T15:06:30.133Z,15.00
2019-03-10T15:09:01.072Z,14.80
2019-03-10T15:11:33.600Z,14.30
2019-03-10T15:14:04.567Z,14.80
2019-03-10T15:16:35.553Z,14.40
2019-03-10T15:19:07.570Z,14.50
2019-03-10T15:21:38.552Z,14.60
2019-03-10T15:24:09.504Z,14.80
2019-03-10T15:26:45.769Z,14.90
2019-03-10T15:29:15.623Z,14.30
2019-03-10T15:31:47.011Z,14.70
2019-03-10T15:34:21.559Z,14.80
2019-03-10T15:36:51.680Z,14.80
2019-03-10T15:39:22.750Z,14.90
2019-03-10T15:41:53.717Z,14.20
2019-03-10T15:44:24.660Z,14.10
2019-03-10T15:46:55.662Z,14.70
2019-03-10T15:49:26.628Z,13.80
2019-03-10T15:51:57.799Z,13.20
2019-03-10T15:54:28.773Z,12.80
2019-03-10T15:57:00.297Z,12.60
2019-03-10T15:59:31.409Z,12.30
2019-03-10T16:02:05.480Z,12.30
2019-03-10T16:04:36.649Z,12.10
2019-03-10T16:07:07.615Z,11.40
2019-03-10T16:09:38.586Z,10.60
2019-03-10T16:12:12.643Z,10.60
2019-03-10T16:14:43.619Z,11.10
2019-03-10T16:17:14.579Z,11.40
2019-03-10T16:19:45.662Z,11.70
2019-03-10T16:22:16.606Z,11.80
2019-03-10T16:24:47.581Z,11.70
2019-03-10T16:27:21.330Z,12.00
2019-03-10T16:29:53.877Z,12.10
2019-03-10T16:32:24.897Z,11.60
2019-03-10T16:34:55.870Z,11.30
2019-03-10T16:37:26.815Z,11.20
2019-03-10T16:39:57.854Z,11.10
2019-03-10T16:42:28.803Z,11.20
2019-03-10T16:44:59.784Z,11.30
2019-03-10T16:47:30.717Z,11.20
2019-03-10T16:50:01.806Z,11.10
2019-03-10T16:52:32.750Z,10.90
2019-03-10T16:55:03.891Z,10.80
2019-03-10T16:57:34.831Z,11.10
2019-03-10T17:00:08.114Z,11.10
2019-03-10T17:02:42.923Z,11.10
2019-03-10T17:05:21.233Z,11.20
2019-03-10T17:07:52.627Z,11.10
2019-03-10T17:10:26.422Z,11.10
2019-03-10T17:12:58.308Z,11.10
2019-03-10T17:15:29.407Z,11.10
2019-03-10T17:18:00.402Z,11.00
2019-03-10T17:20:31.398Z,11.00
2019-03-10T17:23:02.372Z,10.90
2019-03-10T17:25:33.490Z,11.00
2019-03-10T17:28:04.710Z,11.10
2019-03-10T17:30:35.748Z,10.70
2019-03-10T17:33:06.737Z,10.00
2019-03-10T17:35:37.702Z,9.60
2019-03-10T17:38:08.812Z,9.50
2019-03-10T17:40:39.918Z,9.40
2019-03-10T17:43:10.901Z,9.40
2019-03-10T17:45:41.841Z,9.50
2019-03-10T17:48:13.305Z,9.50
2019-03-10T17:50:44.302Z,9.50
2019-03-10T17:53:15.289Z,9.60
2019-03-10T17:55:46.449Z,9.50
2019-03-10T17:58:17.416Z,9.60
2019-03-10T18:00:48.456Z,9.60
2019-03-10T18:03:19.428Z,9.60
2019-03-10T18:05:50.363Z,9.60
2019-03-10T18:08:21.345Z,9.70
2019-03-10T18:10:52.492Z,9.80
2019-03-10T18:13:23.455Z,9.80
2019-03-10T18:15:54.511Z,9.80
2019-03-10T18:18:25.528Z,9.80
2019-03-10T18:20:56.521Z,9.80
2019-03-10T18:23:27.547Z,9.70
2019-03-10T18:25:58.738Z,9.60
2019-03-10T18:28:29.771Z,9.50
2019-03-10T18:31:00.758Z,9.50
2019-03-10T18:33:31.689Z,9.50
2019-03-10T18:36:02.695Z,9.50
2019-03-10T18:38:33.727Z,9.50
2019-03-10T18:41:04.768Z,9.40
2019-03-10T18:43:35.724Z,9.30
2019-03-10T18:46:06.687Z,9.30
2019-03-10T18:48:37.625Z,9.30
2019-03-10T18:51:08.605Z,9.40
2019-03-10T18:53:39.544Z,9.50
2019-03-10T18:56:10.613Z,9.60
2019-03-10T18:58:41.634Z,9.60
2019-03-10T19:01:12.589Z,9.60
2019-03-10T19:03:43.525Z,9.50
2019-03-10T19:06:14.498Z,9.50
2019-03-10T19:08:45.497Z,9.50
2019-03-10T19:11:16.562Z,9.50
2019-03-10T19:13:50.897Z,9.50
2019-03-10T19:16:21.847Z,9.50
2019-03-10T19:18:52.812Z,9.40
2019-03-10T19:21:23.856Z,9.20
2019-03-10T19:23:54.832Z,9.20
2019-03-10T19:26:25.771Z,9.10
2019-03-10T19:28:56.732Z,9.10
2019-03-10T19:31:27.663Z,9.00
2019-03-10T19:33:58.672Z,9.00
2019-03-10T19:36:29.699Z,8.90
2019-03-10T19:39:00.659Z,8.90
2019-03-10T19:41:33.166Z,8.90
2019-03-10T19:44:04.129Z,8.90
2019-03-10T19:46:35.083Z,8.80
2019-03-10T19:49:06.114Z,8.90
2019-03-10T19:51:38.049Z,8.80
2019-03-10T19:54:09.012Z,8.70
2019-03-10T19:56:40.065Z,8.60
2019-03-10T19:59:11.025Z,8.70
2019-03-10T20:01:43.002Z,8.60
2019-03-10T20:04:13.988Z,8.50
2019-03-10T20:06:45.004Z,8.50
2019-03-10T20:09:15.939Z,8.50
2019-03-10T20:11:48.066Z,8.50
2019-03-10T20:14:18.999Z,8.50
2019-03-10T20:16:49.974Z,8.50
2019-03-10T20:19:20.926Z,8.40
2019-03-10T20:21:51.895Z,8.30
2019-03-10T20:24:22.878Z,8.30
2019-03-10T20:26:53.869Z,8.30
2019-03-10T20:29:24.813Z,8.30
2019-03-10T20:31:55.776Z,8.20
2019-03-10T20:34:26.708Z,8.20
2019-03-10T20:36:57.687Z,8.20
2019-03-10T20:39:28.618Z,8.20
2019-03-10T20:42:05.165Z,8.20
2019-03-10T20:44:32.310Z,8.20
2019-03-10T20:47:03.335Z,8.20
2019-03-10T20:49:34.316Z,8.30
2019-03-10T20:52:05.332Z,8.10
2019-03-10T20:54:36.306Z,8.20
2019-03-10T20:57:08.323Z,8.30
2019-03-10T20:59:39.249Z,8.50
2019-03-10T21:02:10.211Z,8.60
2019-03-10T21:04:41.165Z,8.60
2019-03-10T21:07:12.103Z,8.70
2019-03-10T21:09:44.551Z,8.60
2019-03-10T21:12:15.483Z,8.60
2019-03-10T21:14:48.257Z,8.60
2019-03-10T21:17:20.821Z,8.70
2019-03-10T21:19:51.775Z,8.70
2019-03-10T21:22:22.707Z,8.60
2019-03-10T21:24:53.676Z,8.60
2019-03-10T21:27:24.610Z,8.50
2019-03-10T21:29:55.569Z,8.40
2019-03-10T21:32:26.504Z,8.10
2019-03-10T21:34:57.471Z,7.80
2019-03-10T21:37:28.429Z,7.60
2019-03-10T21:39:59.447Z,7.40
2019-03-10T21:42:31.489Z,7.10
2019-03-10T21:45:02.456Z,6.90
2019-03-10T21:47:34.411Z,6.80
2019-03-10T21:50:12.541Z,6.80
2019-03-10T21:52:43.468Z,6.80
2019-03-10T21:55:16.792Z,6.80
2019-03-10T21:57:47.764Z,6.70
2019-03-10T22:00:21.352Z,6.70
2019-03-10T22:02:52.357Z,6.60
2019-03-10T22:05:23.319Z,6.30
2019-03-10T22:07:54.250Z,5.80
2019-03-10T22:10:27.948Z,5.60
2019-03-10T22:12:58.280Z,5.40
2019-03-10T22:15:40.519Z,5.40
2019-03-10T22:18:02.011Z,5.30
2019-03-10T22:20:32.975Z,5.20
2019-03-10T22:23:03.969Z,5.30
2019-03-10T22:25:34.986Z,5.20
2019-03-10T22:28:05.946Z,5.30
2019-03-10T22:30:37.886Z,5.30
2019-03-10T22:33:08.853Z,5.30
2019-03-10T22:35:39.852Z,5.10
2019-03-10T22:38:10.825Z,5.10
2019-03-10T22:40:41.765Z,5.00
2019-03-10T22:43:12.918Z,4.90
2019-03-10T22:45:43.892Z,4.90
2019-03-10T22:48:14.984Z,4.90
2019-03-10T22:50:45.977Z,5.00
2019-03-10T22:53:16.959Z,5.10
2019-03-10T22:55:47.876Z,5.20
2019-03-10T22:58:18.836Z,5.30
2019-03-10T23:00:51.337Z,5.20
2019-03-10T23:03:22.401Z,5.20
2019-03-10T23:05:53.358Z,5.20
2019-03-10T23:08:24.512Z,5.30
2019-03-10T23:10:55.671Z,5.30
2019-03-10T23:13:26.823Z,5.40
2019-03-10T23:15:57.996Z,5.40
2019-03-10T23:18:29.101Z,5.40
2019-03-10T23:21:00.239Z,5.40
2019-03-10T23:23:31.386Z,5.40
2019-03-10T23:26:02.534Z,5.40
2019-03-10T23:28:33.670Z,5.40
2019-03-10T23:31:04.818Z,5.40
2019-03-10T23:33:35.897Z,5.40
2019-03-10T23:36:06.966Z,5.30
2019-03-10T23:38:37.983Z,5.30
2019-03-10T23:41:09.174Z,5.30
2019-03-10T23:43:40.208Z,5.30
2019-03-10T23:46:11.170Z,5.20
2019-03-10T23:48:42.106Z,5.10
2019-03-10T23:51:13.077Z,5.10
2019-03-10T23:53:44.001Z,5.00
2019-03-10T23:56:15.054Z,5.10
2019-03-10T23:58:45.955Z,5.00
